Terminal Aerodrome Forecast
Issued by NWS

Home | Current Version | Previous Version | Text Only | Print | Product List | Glossary On
Versions: 1 2 3 4 5 6 7 8 9 10 11 12 13 14 15 16
000
FTUS43 KMPX 010737 AAA
TAFRNH
TAF AMD
KRNH 010737Z 0108/0206 05013G21KT P6SM OVC025
     FM010930 03018G24KT 6SM -SN OVC025
      TEMPO 0110/0114 4SM -SN
     FM011600 02016G22KT P6SM BKN025 OVC080
     FM011800 01013KT P6SM SCT020=

USA.gov is the U.S. government's official web portal to all federal, state and local government web resources and services.